METAR Formatted Surface Weather Observation
Issued by NWS

Home | Current Version | Previous Version | Text Only | Print | Product List | Glossary On
Versions: 1 2 3 4 5 6 7 8 9 10 11 12 13 14 15 16 17 18 19 20 21 22
000
SAUS43 KUNR 232058
MTRD07
METAR KD07 232056Z AUTO 32032G44KT 13/M06 A3022 RMK AO1 PK WND
31051/2033 SLP241 T01331056 53003



USA.gov is the U.S. government's official web portal to all federal, state and local government web resources and services.